Flight Track Log - Related Links

Times and Time Zones

All times are in EDT time to prevent confusion due to time zone crossing. See the CTL16 flight status page for this flight to view local times or setup timezone preferences in your user account.

Time Position Orientation Groundspeed Altitude Reporting Facility
EDT Latitude Longitude Course Direction KTS MPH feet Rate Location/Type
Mon 08:45:37 PM 39.4000 -84.4667 58° Northeast 167 192 1,600  Level Cincinnati TRACON
Mon 08:46:15 PM 39.4158 -84.4344 58° Northeast 169 194 2,000 677 Climbing Indianapolis Center
Mon 08:46:39 PM 39.4278 -84.4172 48° Northeast 170 196 2,300 679 Climbing Indianapolis Center
Mon 08:47:08 PM 39.4375 -84.4008 52° Northeast 157 181 2,600 689 Climbing Indianapolis Center
Mon 08:47:40 PM 39.4567 -84.3697 51° Northeast 172 198 3,000 590 Climbing Indianapolis Center
Mon 08:48:09 PM 39.4700 -84.3525 45° Northeast 174 200 3,200 527 Climbing Indianapolis Center
Mon 08:49:11 PM 39.5042 -84.3069 46° Northeast 174 200 3,800 587 Climbing Indianapolis Center
Mon 08:49:41 PM 39.5269 -84.2789 44° Northeast 179 206 4,100 492 Climbing Indianapolis Center
Mon 08:50:12 PM 39.5467 -84.2506 48° Northeast 180 207 4,300 393 Climbing Indianapolis Center
Mon 08:50:42 PM 39.5622 -84.2294 46° Northeast 187 215 4,500 484 Climbing Indianapolis Center
Mon 08:51:14 PM 39.5842 -84.2022 44° Northeast 185 213 4,800 627 Climbing Indianapolis Center
Mon 08:51:49 PM 39.6042 -84.1756 46° Northeast 189 217 5,200 689 Climbing Indianapolis Center
Mon 08:52:15 PM 39.6206 -84.1550 44° Northeast 185 213 5,500 627 Climbing Indianapolis Center
Mon 08:52:56 PM 39.6417 -84.1261 46° Northeast 173 199 5,900 484 Climbing Indianapolis Center
Mon 08:53:17 PM 39.6547 -84.1114 41° Northeast 178 205 6,000 537 Climbing Indianapolis Center
Mon 08:54:03 PM 39.6814 -84.0744 47° Northeast 175 201 6,500 590 Climbing Indianapolis Center
Mon 08:54:18 PM 39.6892 -84.0661 40° Northeast 175 201 6,600 400 Climbing Indianapolis Center
Mon 08:55:03 PM 39.7161 -84.0300 46° Northeast 172 198 6,900 393 Climbing Indianapolis Center
Mon 08:55:19 PM 39.7236 -84.0225 38° Northeast 173 199 7,000 98 Climbing Indianapolis Center
Mon 08:56:04 PM 39.7511 -83.9858 46° Northeast 183 211 7,000  Level Indianapolis Center
Mon 08:56:21 PM 39.7600 -83.9758 41° Northeast 176 203 7,000  Level Indianapolis Center
Mon 08:57:11 PM 39.7950 -83.9317 44° Northeast 191 220 7,000  Level Indianapolis Center
Mon 08:58:11 PM 39.8322 -83.8822 46° Northeast 191 220 7,000  Level Indianapolis Center
Mon 08:59:06 PM 39.8672 -83.8378 44° Northeast 192 221 7,000 -81 Level Indianapolis Center
Mon 08:59:25 PM 39.8753 -83.8264 47° Northeast 192 221 6,900  Descending Indianapolis Center
Mon 09:00:13 PM 39.9089 -83.7831 45° Northeast 193 222 7,000 49 Climbing Indianapolis Center
Mon 09:01:27 PM 39.9511 -83.7261 46° Northeast 192 221 7,000 -50 Level Indianapolis Center
Mon 09:02:14 PM 39.9833 -83.6836 45° Northeast 188 216 6,900 -97 Descending Indianapolis Center
Mon 09:02:29 PM 39.9892 -83.6775 39° Northeast 190 219 6,900  Level Indianapolis Center
Mon 09:02:51 PM 40.0042 -83.6564 47° Northeast 190 219 6,900  Level Indianapolis Center
Mon 09:03:30 PM 40.0267 -83.6283 44° Northeast 189 217 6,900  Level Indianapolis Center
Mon 09:03:58 PM 40.0458 -83.6044 44° Northeast 184 212 6,900  Level Indianapolis Center
Mon 09:04:31 PM 40.0650 -83.5814 43° Northeast 187 215 6,900 100 Level Indianapolis Center
Mon 09:04:58 PM 40.0850 -83.5547 46° Northeast 187 215 7,000  Climbing Indianapolis Center
Mon 09:05:32 PM 40.1031 -83.5331 43° Northeast 187 215 6,900  Descending Indianapolis Center
Mon 09:05:59 PM 40.1219 -83.5075 46° Northeast 188 216 7,000 97 Climbing Indianapolis Center
Mon 09:06:34 PM 40.1394 -83.4844 45° Northeast 186 214 7,000  Level Indianapolis Center
Mon 09:06:54 PM 40.1567 -83.4625 44° Northeast 188 216 7,000 -98 Level Indianapolis Center
Mon 09:07:35 PM 40.1783 -83.4361 43° Northeast 189 217 6,900 76 Descending Indianapolis Center
Mon 09:08:13 PM 40.2050 -83.4003 46° Northeast 188 216 7,100 98 Climbing Indianapolis Center
Mon 09:08:36 PM 40.2158 -83.3878 41° Northeast 188 216 7,000  Descending Indianapolis Center
Mon 09:08:55 PM 40.2303 -83.3678 47° Northeast 186 214 7,100 -97 Climbing Indianapolis Center
Mon 09:09:38 PM 40.2536 -83.3408 41° Northeast 186 214 6,900  Descending Indianapolis Center
Mon 09:09:56 PM 40.2714 -83.3208 41° Northeast 187 215 7,100 98 Climbing Indianapolis Center
Mon 09:10:39 PM 40.2992 -83.2869 43° Northeast 186 214 7,000 -58 Descending Indianapolis Center
Mon 09:11:40 PM 40.3356 -83.2381 46° Northeast 185 213 7,000  Level Indianapolis Center
Mon 09:12:41 PM 40.3725 -83.1897 45° Northeast 184 212 7,000  Level Indianapolis Center
Mon 09:13:43 PM 40.4089 -83.1417 45° Northeast 184 212 7,000 -49 Level Indianapolis Center
Mon 09:14:44 PM 40.4464 -83.0931 45° Northeast 187 215 6,900 -49 Descending Indianapolis Center
Mon 09:15:45 PM 40.4844 -83.0478 42° Northeast 183 211 6,900 49 Level Indianapolis Center
Mon 09:16:46 PM 40.5231 -83.0050 40° Northeast 184 212 7,000 49 Climbing Indianapolis Center
Mon 09:17:47 PM 40.5592 -82.9553 46° Northeast 186 214 7,000 -49 Level Indianapolis Center
Mon 09:18:49 PM 40.5958 -82.9083 44° Northeast 183 211 6,900 -146 Descending Indianapolis Center
Mon 09:19:50 PM 40.6325 -82.8575 46° Northeast 187 215 6,700 -344 Descending Indianapolis Center
Mon 09:20:51 PM 40.6742 -82.8056 43° Northeast 200 230 6,200 -492 Descending Indianapolis Center
Mon 09:21:52 PM 40.7142 -82.7494 47° Northeast 206 237 5,700 -486 Descending Indianapolis Center
Mon 09:22:42 PM 40.7500 -82.7017 45° Northeast 213 245 5,300 -293 Descending Cleveland Center
Mon 09:23:55 PM 40.8033 -82.6350 43° Northeast 212 244 5,100 -94 Descending Cleveland Center
Mon 09:24:50 PM 40.8375 -82.5867 47° Northeast 201 231 5,100 -52 Level Cleveland Center
Mon 09:25:50 PM 40.8758 -82.5328 47° Northeast 201 231 5,000  Descending Cleveland Center
Mon 09:27:03 PM 40.9272 -82.4656 45° Northeast 201 231 5,100 47 Climbing Cleveland Center
Mon 09:27:58 PM 40.9611 -82.4225 44° Northeast 199 229 5,100 -52 Level Cleveland Center
Mon 09:28:58 PM 40.9994 -82.3686 47° Northeast 204 235 5,000  Descending Cleveland Center
Mon 09:29:59 PM 41.0422 -82.3119 45° Northeast 205 236 5,100 50 Climbing Cleveland Center
Mon 09:30:59 PM 41.0825 -82.2608 44° Northeast 205 236 5,100  Level Cleveland Center
Mon 09:31:54 PM 41.1228 -82.2094 44° Northeast 208 239 5,100  Level Cleveland Center
Mon 09:32:49 PM 41.1547 -82.1633 47° Northeast 205 236 5,100 -50 Level Cleveland Center
Mon 09:33:55 PM 41.1808 -82.0894 65° Northeast 197 227 5,000 -378 Descending Cleveland Center
Mon 09:34:56 PM 41.1942 -82.0181 76° East 202 232 4,300 -645 Descending Cleveland Center
Mon 09:35:56 PM 41.2056 -81.9464 78° East 196 226 3,700 -397 Descending Cleveland Center
Mon 09:36:57 PM 41.2147 -81.8806 79° East 183 211 3,500 -197 Descending Cleveland Center
Mon 09:37:58 PM 41.2217 -81.8172 82° East 174 200 3,300 -209 Descending Cleveland Center
Mon 09:38:52 PM 41.2533 -81.7736 46° Northeast 207 238 3,100 -157 Descending Cleveland Center
Mon 09:39:53 PM 41.3078 -81.7525 16° North 201 231 3,000 -50 Descending Cleveland Center
Mon 09:40:53 PM 41.3622 -81.7367 12° North 197 227 3,000 -378 Level Cleveland Center
Mon 09:42:00 PM 41.4228 -81.7047 22° Northeast 212 244 2,200 -609 Descending Cleveland Center
Mon 09:43:01 PM 41.4711 -81.6778 23° Northeast 177 204 1,700 -472 Descending Cleveland Center
Mon 09:44:07 PM 41.5172 -81.6564 19° North 136 157 1,200 -455 Descending Cleveland Center
Mon 09:46:00 PM 41.5175 -81.6833 271° West  Level Estimated

Login

Don't have an account? Register now (free) for customized features, flight alerts, and more!